sensor_id;sensor_type;location;lat;lon;timestamp;pressure;altitude;pressure_sealevel;temperature;humidity
30873;BME280;17579;42.690;2.586;2023-05-29T00:00:20;96820.78;;;21.39;42.79
30873;BME280;17579;42.690;2.586;2023-05-29T00:02:50;96822.41;;;21.40;42.88
30873;BME280;17579;42.690;2.586;2023-05-29T00:05:19;96817.88;;;21.41;42.80
30873;BME280;17579;42.690;2.586;2023-05-29T00:07:45;96821.22;;;21.36;42.94
30873;BME280;17579;42.690;2.586;2023-05-29T00:10:13;96826.91;;;21.28;43.00
30873;BME280;17579;42.690;2.586;2023-05-29T00:12:51;96833.78;;;21.24;43.21
30873;BME280;17579;42.690;2.586;2023-05-29T00:15:29;96827.94;;;21.27;43.07
30873;BME280;17579;42.690;2.586;2023-05-29T00:17:55;96826.06;;;21.27;43.26
30873;BME280;17579;42.690;2.586;2023-05-29T00:20:24;96827.19;;;21.20;43.17
30873;BME280;17579;42.690;2.586;2023-05-29T00:23:00;96829.31;;;21.18;43.37
30873;BME280;17579;42.690;2.586;2023-05-29T00:25:37;96838.25;;;21.11;43.21
30873;BME280;17579;42.690;2.586;2023-05-29T00:28:07;96833.75;;;21.05;43.93
30873;BME280;17579;42.690;2.586;2023-05-29T00:30:38;96836.69;;;21.04;43.57
30873;BME280;17579;42.690;2.586;2023-05-29T00:33:04;96838.75;;;21.02;43.84
30873;BME280;17579;42.690;2.586;2023-05-29T00:35:30;96841.06;;;20.98;43.61
30873;BME280;17579;42.690;2.586;2023-05-29T00:38:01;96836.81;;;20.90;43.77
30873;BME280;17579;42.690;2.586;2023-05-29T00:40:29;96825.88;;;20.85;44.22
30873;BME280;17579;42.690;2.586;2023-05-29T00:42:55;96830.47;;;20.85;44.09
30873;BME280;17579;42.690;2.586;2023-05-29T00:45:24;96829.84;;;20.83;43.72
30873;BME280;17579;42.690;2.586;2023-05-29T00:47:54;96832.53;;;20.83;44.01
30873;BME280;17579;42.690;2.586;2023-05-29T00:50:25;96833.94;;;20.85;44.11
30873;BME280;17579;42.690;2.586;2023-05-29T00:52:51;96828.41;;;20.80;44.05
30873;BME280;17579;42.690;2.586;2023-05-29T00:55:16;96823.91;;;20.74;44.22
30873;BME280;17579;42.690;2.586;2023-05-29T00:57:45;96832.44;;;20.71;44.10
30873;BME280;17579;42.690;2.586;2023-05-29T01:00:12;96828.94;;;20.70;44.10
30873;BME280;17579;42.690;2.586;2023-05-29T01:02:42;96826.84;;;20.66;44.41
30873;BME280;17579;42.690;2.586;2023-05-29T01:05:32;96836.81;;;20.58;43.83
30873;BME280;17579;42.690;2.586;2023-05-29T01:08:04;96837.22;;;20.62;44.02
30873;BME280;17579;42.690;2.586;2023-05-29T01:10:32;96833.56;;;20.56;44.24
30873;BME280;17579;42.690;2.586;2023-05-29T01:13:07;96824.72;;;20.49;44.25
30873;BME280;17579;42.690;2.586;2023-05-29T01:15:42;96825.97;;;20.47;44.23
30873;BME280;17579;42.690;2.586;2023-05-29T01:23:38;96824.31;;;20.46;44.13
30873;BME280;17579;42.690;2.586;2023-05-29T01:29:07;96813.03;;;20.37;44.39
30873;BME280;17579;42.690;2.586;2023-05-29T01:31:37;96813.66;;;20.39;44.04
30873;BME280;17579;42.690;2.586;2023-05-29T01:34:05;96808.09;;;20.34;44.18
30873;BME280;17579;42.690;2.586;2023-05-29T01:36:44;96810.19;;;20.32;44.00
30873;BME280;17579;42.690;2.586;2023-05-29T01:39:11;96810.78;;;20.34;43.89
30873;BME280;17579;42.690;2.586;2023-05-29T01:41:41;96809.97;;;20.33;44.17
30873;BME280;17579;42.690;2.586;2023-05-29T01:44:13;96812.03;;;20.31;44.41
30873;BME280;17579;42.690;2.586;2023-05-29T01:46:40;96805.63;;;20.32;44.07
30873;BME280;17579;42.690;2.586;2023-05-29T01:49:08;96808.53;;;20.31;43.93
30873;BME280;17579;42.690;2.586;2023-05-29T01:51:40;96813.53;;;20.27;44.13
30873;BME280;17579;42.690;2.586;2023-05-29T01:54:06;96821.38;;;20.29;43.76
30873;BME280;17579;42.690;2.586;2023-05-29T01:56:33;96819.50;;;20.29;43.87
30873;BME280;17579;42.690;2.586;2023-05-29T01:59:02;96825.09;;;20.28;44.04
30873;BME280;17579;42.690;2.586;2023-05-29T02:01:33;96819.28;;;20.31;43.89
30873;BME280;17579;42.690;2.586;2023-05-29T02:03:59;96819.28;;;20.31;44.19
30873;BME280;17579;42.690;2.586;2023-05-29T02:06:25;96824.06;;;20.29;44.57
30873;BME280;17579;42.690;2.586;2023-05-29T02:09:01;96823.22;;;20.28;44.63
30873;BME280;17579;42.690;2.586;2023-05-29T02:11:26;96823.66;;;20.25;44.89
30873;BME280;17579;42.690;2.586;2023-05-29T02:13:54;96821.63;;;20.20;44.66
30873;BME280;17579;42.690;2.586;2023-05-29T02:16:33;96825.78;;;20.16;44.94
30873;BME280;17579;42.690;2.586;2023-05-29T02:19:00;96830.50;;;20.21;45.49
30873;BME280;17579;42.690;2.586;2023-05-29T02:21:49;96830.28;;;20.22;45.32
30873;BME280;17579;42.690;2.586;2023-05-29T02:24:20;96820.41;;;20.16;45.31
30873;BME280;17579;42.690;2.586;2023-05-29T02:26:53;96822.50;;;20.14;46.03
30873;BME280;17579;42.690;2.586;2023-05-29T02:29:31;96824.78;;;20.11;45.73
30873;BME280;17579;42.690;2.586;2023-05-29T02:31:57;96823.97;;;20.10;46.03
30873;BME280;17579;42.690;2.586;2023-05-29T02:34:28;96826.66;;;20.10;45.75
30873;BME280;17579;42.690;2.586;2023-05-29T02:36:54;96820.22;;;20.11;46.49
30873;BME280;17579;42.690;2.586;2023-05-29T02:39:26;96813.81;;;20.12;45.94
30873;BME280;17579;42.690;2.586;2023-05-29T02:41:55;96816.91;;;20.16;46.25
30873;BME280;17579;42.690;2.586;2023-05-29T02:44:27;96807.22;;;20.15;46.04
30873;BME280;17579;42.690;2.586;2023-05-29T02:47:05;96815.03;;;20.16;45.97
30873;BME280;17579;42.690;2.586;2023-05-29T02:49:34;96812.53;;;20.21;46.51
30873;BME280;17579;42.690;2.586;2023-05-29T02:51:59;96814.38;;;20.21;46.52
30873;BME280;17579;42.690;2.586;2023-05-29T02:54:26;96815.00;;;20.23;46.34
30873;BME280;17579;42.690;2.586;2023-05-29T02:56:56;96815.81;;;20.23;45.99
30873;BME280;17579;42.690;2.586;2023-05-29T02:59:43;96808.78;;;20.22;46.06
30873;BME280;17579;42.690;2.586;2023-05-29T03:02:10;96804.59;;;20.33;46.03
30873;BME280;17579;42.690;2.586;2023-05-29T03:04:56;96806.06;;;20.29;45.95
30873;BME280;17579;42.690;2.586;2023-05-29T03:07:42;96804.16;;;20.36;46.11
30873;BME280;17579;42.690;2.586;2023-05-29T03:10:15;96805.41;;;20.34;45.74
30873;BME280;17579;42.690;2.586;2023-05-29T03:12:44;96810.63;;;20.29;45.94
30873;BME280;17579;42.690;2.586;2023-05-29T03:15:12;96806.09;;;20.22;45.87
30873;BME280;17579;42.690;2.586;2023-05-29T03:17:46;96813.56;;;20.20;45.78
30873;BME280;17579;42.690;2.586;2023-05-29T03:20:25;96806.78;;;20.18;45.92
30873;BME280;17579;42.690;2.586;2023-05-29T03:23:14;96808.44;;;20.19;46.28
30873;BME280;17579;42.690;2.586;2023-05-29T03:25:45;96807.66;;;20.12;45.98
30873;BME280;17579;42.690;2.586;2023-05-29T03:28:11;96803.28;;;20.17;46.45
30873;BME280;17579;42.690;2.586;2023-05-29T03:30:36;96803.28;;;20.17;46.21
30873;BME280;17579;42.690;2.586;2023-05-29T03:33:11;96801.19;;;20.19;46.42
30873;BME280;17579;42.690;2.586;2023-05-29T03:35:40;96797.47;;;20.20;46.09
30873;BME280;17579;42.690;2.586;2023-05-29T03:38:08;96799.75;;;20.17;46.39
30873;BME280;17579;42.690;2.586;2023-05-29T03:40:33;96796.69;;;20.13;46.02
30873;BME280;17579;42.690;2.586;2023-05-29T03:43:02;96798.16;;;20.09;46.56
30873;BME280;17579;42.690;2.586;2023-05-29T03:45:46;96792.56;;;20.11;46.37
30873;BME280;17579;42.690;2.586;2023-05-29T03:48:14;96794.66;;;20.08;46.18
30873;BME280;17579;42.690;2.586;2023-05-29T03:50:40;96796.13;;;20.04;46.28
30873;BME280;17579;42.690;2.586;2023-05-29T03:53:08;96794.50;;;19.97;46.08
30873;BME280;17579;42.690;2.586;2023-05-29T03:55:41;96793.72;;;19.89;46.01
30873;BME280;17579;42.690;2.586;2023-05-29T03:58:19;96800.38;;;19.87;46.85
30873;BME280;17579;42.690;2.586;2023-05-29T04:00:50;96792.72;;;19.84;46.42
30873;BME280;17579;42.690;2.586;2023-05-29T04:03:16;96798.72;;;19.86;46.45
30873;BME280;17579;42.690;2.586;2023-05-29T04:05:58;96805.94;;;19.85;46.60
30873;BME280;17579;42.690;2.586;2023-05-29T04:08:34;96795.19;;;19.85;46.65
30873;BME280;17579;42.690;2.586;2023-05-29T04:11:03;96802.44;;;19.85;46.81
30873;BME280;17579;42.690;2.586;2023-05-29T04:13:38;96811.28;;;19.85;46.97
30873;BME280;17579;42.690;2.586;2023-05-29T04:16:06;96813.78;;;19.87;47.20
30873;BME280;17579;42.690;2.586;2023-05-29T04:18:35;96813.78;;;19.87;46.86
30873;BME280;17579;42.690;2.586;2023-05-29T04:21:01;96812.28;;;19.91;46.96
30873;BME280;17579;42.690;2.586;2023-05-29T04:23:26;96806.75;;;19.93;46.76
30873;BME280;17579;42.690;2.586;2023-05-29T04:25:55;96806.75;;;19.93;47.17
30873;BME280;17579;42.690;2.586;2023-05-29T04:28:20;96811.69;;;19.89;47.09
30873;BME280;17579;42.690;2.586;2023-05-29T04:30:50;96821.84;;;19.87;47.11
30873;BME280;17579;42.690;2.586;2023-05-29T04:33:26;96814.97;;;19.91;47.01
30873;BME280;17579;42.690;2.586;2023-05-29T04:35:53;96817.03;;;19.96;46.80
30873;BME280;17579;42.690;2.586;2023-05-29T04:38:29;96810.41;;;19.98;46.96
30873;BME280;17579;42.690;2.586;2023-05-29T04:40:56;96815.56;;;20.00;47.42
30873;BME280;17579;42.690;2.586;2023-05-29T04:44:03;96805.22;;;20.03;46.99
30873;BME280;17579;42.690;2.586;2023-05-29T04:46:11;96810.78;;;20.08;47.30
30873;BME280;17579;42.690;2.586;2023-05-29T04:48:41;96815.69;;;20.12;47.31
30873;BME280;17579;42.690;2.586;2023-05-29T04:51:22;96818.53;;;20.17;46.81
30873;BME280;17579;42.690;2.586;2023-05-29T04:53:52;96819.94;;;20.26;47.11
30873;BME280;17579;42.690;2.586;2023-05-29T04:56:20;96823.41;;;20.33;46.89
30873;BME280;17579;42.690;2.586;2023-05-29T04:58:49;96826.47;;;20.37;46.85
30873;BME280;17579;42.690;2.586;2023-05-29T05:01:16;96826.19;;;20.45;46.77
30873;BME280;17579;42.690;2.586;2023-05-29T05:03:43;96827.19;;;20.51;47.21
30873;BME280;17579;42.690;2.586;2023-05-29T05:06:28;96824.25;;;20.59;46.76
30873;BME280;17579;42.690;2.586;2023-05-29T05:09:04;96833.47;;;20.70;46.80
30873;BME280;17579;42.690;2.586;2023-05-29T05:11:55;96832.38;;;20.77;47.02
30873;BME280;17579;42.690;2.586;2023-05-29T05:14:28;96838.53;;;20.85;46.88
30873;BME280;17579;42.690;2.586;2023-05-29T05:16:59;96838.66;;;20.90;47.01
30873;BME280;17579;42.690;2.586;2023-05-29T05:19:54;96833.59;;;21.00;46.62
30873;BME280;17579;42.690;2.586;2023-05-29T05:22:20;96835.31;;;21.13;46.67
30873;BME280;17579;42.690;2.586;2023-05-29T05:24:46;96832.53;;;21.26;46.56
30873;BME280;17579;42.690;2.586;2023-05-29T05:27:24;96834.25;;;21.39;46.34
30873;BME280;17579;42.690;2.586;2023-05-29T05:29:49;96839.75;;;21.44;46.31
30873;BME280;17579;42.690;2.586;2023-05-29T05:32:27;96848.66;;;21.45;46.50
30873;BME280;17579;42.690;2.586;2023-05-29T05:34:58;96853.09;;;21.58;46.15
30873;BME280;17579;42.690;2.586;2023-05-29T05:37:27;96848.00;;;21.68;46.50
30873;BME280;17579;42.690;2.586;2023-05-29T05:40:04;96850.69;;;21.87;45.89
30873;BME280;17579;42.690;2.586;2023-05-29T05:42:32;96851.53;;;21.99;45.49
30873;BME280;17579;42.690;2.586;2023-05-29T05:45:18;96856.63;;;22.19;45.59
30873;BME280;17579;42.690;2.586;2023-05-29T05:47:47;96859.81;;;22.28;45.22
30873;BME280;17579;42.690;2.586;2023-05-29T05:50:23;96865.06;;;22.41;45.02
30873;BME280;17579;42.690;2.586;2023-05-29T05:52:56;96865.09;;;22.53;44.63
30873;BME280;17579;42.690;2.586;2023-05-29T05:58:33;96864.94;;;22.36;44.57
30873;BME280;17579;42.690;2.586;2023-05-29T06:00:58;96877.13;;;22.39;45.07
30873;BME280;17579;42.690;2.586;2023-05-29T06:03:26;96868.81;;;22.40;44.97
30873;BME280;17579;42.690;2.586;2023-05-29T06:11:21;96855.00;;;22.18;45.33
30873;BME280;17579;42.690;2.586;2023-05-29T06:13:49;96857.91;;;22.17;45.63
30873;BME280;17579;42.690;2.586;2023-05-29T06:16:20;96855.09;;;22.11;45.63
30873;BME280;17579;42.690;2.586;2023-05-29T06:18:59;96862.34;;;22.11;46.37
30873;BME280;17579;42.690;2.586;2023-05-29T06:21:26;96864.94;;;22.18;46.19
30873;BME280;17579;42.690;2.586;2023-05-29T06:23:54;96862.41;;;22.23;46.50
30873;BME280;17579;42.690;2.586;2023-05-29T06:26:20;96857.25;;;22.52;46.27
30873;BME280;17579;42.690;2.586;2023-05-29T06:28:46;96862.94;;;22.97;44.91
30873;BME280;17579;42.690;2.586;2023-05-29T06:31:22;96870.31;;;23.26;44.43
30873;BME280;17579;42.690;2.586;2023-05-29T06:33:51;96879.50;;;23.25;43.54
30873;BME280;17579;42.690;2.586;2023-05-29T06:36:19;96871.00;;;23.09;43.81
30873;BME280;17579;42.690;2.586;2023-05-29T06:38:49;96878.28;;;23.09;43.88
30873;BME280;17579;42.690;2.586;2023-05-29T06:41:16;96873.34;;;23.06;43.49
30873;BME280;17579;42.690;2.586;2023-05-29T06:43:54;96878.31;;;23.21;43.26
30873;BME280;17579;42.690;2.586;2023-05-29T06:46:45;96872.03;;;23.67;43.48
30873;BME280;17579;42.690;2.586;2023-05-29T06:49:13;96877.16;;;24.21;41.81
30873;BME280;17579;42.690;2.586;2023-05-29T06:51:41;96872.16;;;24.59;41.88
30873;BME280;17579;42.690;2.586;2023-05-29T06:54:08;96871.22;;;24.82;40.82
30873;BME280;17579;42.690;2.586;2023-05-29T06:56:34;96864.97;;;24.99;40.56
30873;BME280;17579;42.690;2.586;2023-05-29T06:58:59;96863.97;;;25.39;39.97
30873;BME280;17579;42.690;2.586;2023-05-29T07:01:25;96864.22;;;25.59;39.80
30873;BME280;17579;42.690;2.586;2023-05-29T07:03:52;96863.13;;;25.77;39.65
30873;BME280;17579;42.690;2.586;2023-05-29T07:06:27;96860.88;;;25.97;39.44
30873;BME280;17579;42.690;2.586;2023-05-29T07:08:58;96861.91;;;26.40;38.46
30873;BME280;17579;42.690;2.586;2023-05-29T07:11:34;96861.75;;;26.52;37.99
30873;BME280;17579;42.690;2.586;2023-05-29T07:14:02;96865.84;;;26.54;37.69
30873;BME280;17579;42.690;2.586;2023-05-29T07:16:44;96860.88;;;26.73;38.63
30873;BME280;17579;42.690;2.586;2023-05-29T07:19:15;96866.75;;;26.92;37.88
30873;BME280;17579;42.690;2.586;2023-05-29T07:21:45;96869.06;;;27.16;36.97
30873;BME280;17579;42.690;2.586;2023-05-29T07:24:11;96863.69;;;27.26;36.63
30873;BME280;17579;42.690;2.586;2023-05-29T07:26:39;96863.91;;;27.14;36.29
30873;BME280;17579;42.690;2.586;2023-05-29T07:29:20;96872.03;;;27.14;36.81
30873;BME280;17579;42.690;2.586;2023-05-29T07:34:55;96884.50;;;27.48;36.21
30873;BME280;17579;42.690;2.586;2023-05-29T07:37:21;96896.78;;;27.61;35.85
30873;BME280;17579;42.690;2.586;2023-05-29T07:40:10;96888.94;;;27.70;36.49
30873;BME280;17579;42.690;2.586;2023-05-29T07:42:38;96890.94;;;27.85;35.14
30873;BME280;17579;42.690;2.586;2023-05-29T07:45:17;96886.91;;;27.97;34.64
30873;BME280;17579;42.690;2.586;2023-05-29T07:47:45;96887.50;;;28.05;35.23
30873;BME280;17579;42.690;2.586;2023-05-29T07:50:17;96885.94;;;28.29;34.32
30873;BME280;17579;42.690;2.586;2023-05-29T07:52:43;96886.56;;;28.62;34.14
30873;BME280;17579;42.690;2.586;2023-05-29T07:55:31;96884.13;;;28.81;33.38
30873;BME280;17579;42.690;2.586;2023-05-29T07:58:14;96890.13;;;28.68;33.91
30873;BME280;17579;42.690;2.586;2023-05-29T08:00:47;96889.25;;;28.52;33.64
30873;BME280;17579;42.690;2.586;2023-05-29T08:03:32;96886.97;;;28.13;34.66
30873;BME280;17579;42.690;2.586;2023-05-29T08:06:01;96896.00;;;28.34;33.93
30873;BME280;17579;42.690;2.586;2023-05-29T08:08:26;96899.81;;;28.38;33.74
30873;BME280;17579;42.690;2.586;2023-05-29T08:10:55;96893.31;;;28.44;33.98
30873;BME280;17579;42.690;2.586;2023-05-29T08:13:20;96897.13;;;28.43;33.95
30873;BME280;17579;42.690;2.586;2023-05-29T08:16:11;96890.88;;;28.58;33.68
30873;BME280;17579;42.690;2.586;2023-05-29T08:18:42;96893.38;;;28.70;33.82
30873;BME280;17579;42.690;2.586;2023-05-29T08:21:10;96892.81;;;28.99;32.90
30873;BME280;17579;42.690;2.586;2023-05-29T08:23:39;96889.56;;;28.97;33.54
30873;BME280;17579;42.690;2.586;2023-05-29T08:26:10;96889.84;;;29.26;33.38
30873;BME280;17579;42.690;2.586;2023-05-29T08:28:42;96886.00;;;29.22;32.93
30873;BME280;17579;42.690;2.586;2023-05-29T08:31:10;96888.47;;;28.82;33.01
30873;BME280;17579;42.690;2.586;2023-05-29T08:33:41;96898.97;;;28.22;33.69
30873;BME280;17579;42.690;2.586;2023-05-29T08:36:10;96900.66;;;27.75;34.32
30873;BME280;17579;42.690;2.586;2023-05-29T08:38:47;96885.34;;;27.16;34.79
30873;BME280;17579;42.690;2.586;2023-05-29T08:41:21;96895.00;;;26.69;35.83
30873;BME280;17579;42.690;2.586;2023-05-29T08:43:55;96885.09;;;26.53;35.74
30873;BME280;17579;42.690;2.586;2023-05-29T08:46:24;96887.47;;;26.76;35.95
30873;BME280;17579;42.690;2.586;2023-05-29T08:48:52;96886.28;;;26.94;35.70
30873;BME280;17579;42.690;2.586;2023-05-29T08:54:22;96884.38;;;26.35;36.17
30873;BME280;17579;42.690;2.586;2023-05-29T08:56:50;96888.50;;;26.16;37.07
30873;BME280;17579;42.690;2.586;2023-05-29T09:02:04;96886.38;;;26.18;36.56
30873;BME280;17579;42.690;2.586;2023-05-29T09:04:41;96886.38;;;26.45;36.57
30873;BME280;17579;42.690;2.586;2023-05-29T09:07:44;96885.97;;;26.91;36.50
30873;BME280;17579;42.690;2.586;2023-05-29T09:10:12;96890.44;;;27.45;34.53
30873;BME280;17579;42.690;2.586;2023-05-29T09:12:43;96894.97;;;27.77;33.74
30873;BME280;17579;42.690;2.586;2023-05-29T09:15:22;96891.63;;;28.17;33.37
30873;BME280;17579;42.690;2.586;2023-05-29T09:17:55;96896.78;;;28.24;33.18
30873;BME280;17579;42.690;2.586;2023-05-29T09:20:26;96893.22;;;28.08;33.80
30873;BME280;17579;42.690;2.586;2023-05-29T09:22:58;96884.78;;;28.10;33.95
30873;BME280;17579;42.690;2.586;2023-05-29T09:25:29;96882.63;;;28.12;32.94
30873;BME280;17579;42.690;2.586;2023-05-29T09:27:59;96891.31;;;28.14;33.58
30873;BME280;17579;42.690;2.586;2023-05-29T09:30:45;96887.50;;;28.10;33.72
30873;BME280;17579;42.690;2.586;2023-05-29T09:33:15;96883.97;;;28.09;32.97
30873;BME280;17579;42.690;2.586;2023-05-29T09:37:15;96883.72;;;28.21;32.08
30873;BME280;17579;42.690;2.586;2023-05-29T09:38:45;96882.13;;;28.35;31.40
30873;BME280;17579;42.690;2.586;2023-05-29T09:41:13;96885.97;;;28.55;30.21
30873;BME280;17579;42.690;2.586;2023-05-29T09:44:07;96884.06;;;28.45;30.42
30873;BME280;17579;42.690;2.586;2023-05-29T09:46:42;96880.81;;;28.54;30.09
30873;BME280;17579;42.690;2.586;2023-05-29T09:49:20;96881.13;;;28.67;30.03
30873;BME280;17579;42.690;2.586;2023-05-29T09:51:52;96882.75;;;28.89;30.18
30873;BME280;17579;42.690;2.586;2023-05-29T09:54:22;96880.56;;;28.86;30.41
30873;BME280;17579;42.690;2.586;2023-05-29T09:56:48;96880.03;;;28.79;29.73
30873;BME280;17579;42.690;2.586;2023-05-29T09:59:31;96868.84;;;28.60;29.72
30873;BME280;17579;42.690;2.586;2023-05-29T10:02:13;96875.94;;;28.66;29.92
30873;BME280;17579;42.690;2.586;2023-05-29T10:07:37;96881.06;;;28.47;29.34
30873;BME280;17579;42.690;2.586;2023-05-29T10:10:12;96881.31;;;28.40;29.00
30873;BME280;17579;42.690;2.586;2023-05-29T10:12:53;96876.44;;;28.47;30.03
30873;BME280;17579;42.690;2.586;2023-05-29T10:15:23;96888.72;;;28.55;28.57
30873;BME280;17579;42.690;2.586;2023-05-29T10:18:02;96875.09;;;28.45;28.88
30873;BME280;17579;42.690;2.586;2023-05-29T10:20:29;96890.03;;;28.32;28.04
30873;BME280;17579;42.690;2.586;2023-05-29T10:23:02;96887.81;;;28.24;28.64
30873;BME280;17579;42.690;2.586;2023-05-29T10:25:41;96881.59;;;28.39;28.70
30873;BME280;17579;42.690;2.586;2023-05-29T10:36:07;96868.53;;;28.30;26.54
30873;BME280;17579;42.690;2.586;2023-05-29T10:38:35;96870.94;;;28.06;27.07
30873;BME280;17579;42.690;2.586;2023-05-29T10:44:37;96873.44;;;28.33;27.87
30873;BME280;17579;42.690;2.586;2023-05-29T10:49:23;96862.34;;;28.71;27.11
30873;BME280;17579;42.690;2.586;2023-05-29T10:51:58;96863.97;;;28.88;26.76
30873;BME280;17579;42.690;2.586;2023-05-29T10:54:40;96862.34;;;28.97;27.17
30873;BME280;17579;42.690;2.586;2023-05-29T10:57:07;96856.06;;;29.17;25.35
30873;BME280;17579;42.690;2.586;2023-05-29T10:59:45;96861.50;;;29.17;26.24
30873;BME280;17579;42.690;2.586;2023-05-29T11:02:18;96856.63;;;28.98;26.29
30873;BME280;17579;42.690;2.586;2023-05-29T11:05:17;96853.63;;;28.84;26.98
30873;BME280;17579;42.690;2.586;2023-05-29T11:07:59;96860.72;;;28.70;27.25
30873;BME280;17579;42.690;2.586;2023-05-29T11:16:36;96849.31;;;28.83;26.58
30873;BME280;17579;42.690;2.586;2023-05-29T11:19:11;96852.00;;;28.73;26.83
30873;BME280;17579;42.690;2.586;2023-05-29T11:24:07;96844.66;;;28.84;27.00
30873;BME280;17579;42.690;2.586;2023-05-29T11:26:40;96836.50;;;28.84;26.76
30873;BME280;17579;42.690;2.586;2023-05-29T11:29:13;96844.94;;;28.82;26.86
30873;BME280;17579;42.690;2.586;2023-05-29T11:31:42;96842.47;;;28.86;26.68
30873;BME280;17579;42.690;2.586;2023-05-29T11:34:14;96848.72;;;28.92;26.44
30873;BME280;17579;42.690;2.586;2023-05-29T11:36:40;96841.38;;;28.97;25.94
30873;BME280;17579;42.690;2.586;2023-05-29T11:39:09;96838.66;;;28.97;24.67
30873;BME280;17579;42.690;2.586;2023-05-29T11:41:43;96835.97;;;28.92;25.25
30873;BME280;17579;42.690;2.586;2023-05-29T11:47:04;96830.50;;;28.92;24.35
30873;BME280;17579;42.690;2.586;2023-05-29T11:49:36;96832.97;;;28.94;24.35
30873;BME280;17579;42.690;2.586;2023-05-29T11:54:38;96827.72;;;29.33;24.38
30873;BME280;17579;42.690;2.586;2023-05-29T11:59:49;96815.97;;;29.48;24.46
30873;BME280;17579;42.690;2.586;2023-05-29T12:02:30;96819.97;;;29.66;25.21
30873;BME280;17579;42.690;2.586;2023-05-29T12:05:17;96819.31;;;29.95;24.59
30873;BME280;17579;42.690;2.586;2023-05-29T12:07:57;96816.78;;;30.14;24.60
30873;BME280;17579;42.690;2.586;2023-05-29T12:10:35;96817.66;;;30.04;25.16
30873;BME280;17579;42.690;2.586;2023-05-29T12:13:03;96816.28;;;30.07;25.01
30873;BME280;17579;42.690;2.586;2023-05-29T12:15:29;96808.25;;;30.26;25.01
30873;BME280;17579;42.690;2.586;2023-05-29T12:17:55;96805.16;;;30.43;24.52
30873;BME280;17579;42.690;2.586;2023-05-29T12:20:34;96808.88;;;30.52;24.56
30873;BME280;17579;42.690;2.586;2023-05-29T12:23:29;96809.56;;;30.68;24.53
30873;BME280;17579;42.690;2.586;2023-05-29T12:25:58;96804.59;;;30.75;24.21
30873;BME280;17579;42.690;2.586;2023-05-29T12:28:25;96799.75;;;30.97;24.30
30873;BME280;17579;42.690;2.586;2023-05-29T12:31:00;96813.59;;;31.11;24.17
30873;BME280;17579;42.690;2.586;2023-05-29T12:33:31;96803.22;;;31.07;24.26
30873;BME280;17579;42.690;2.586;2023-05-29T12:36:07;96793.47;;;31.25;24.12
30873;BME280;17579;42.690;2.586;2023-05-29T12:44:04;96799.06;;;31.15;23.79
30873;BME280;17579;42.690;2.586;2023-05-29T12:46:36;96794.41;;;31.40;23.96
30873;BME280;17579;42.690;2.586;2023-05-29T12:51:31;96796.50;;;31.48;23.14
30873;BME280;17579;42.690;2.586;2023-05-29T12:54:02;96790.59;;;31.65;23.23
30873;BME280;17579;42.690;2.586;2023-05-29T12:56:33;96788.06;;;31.69;22.76
30873;BME280;17579;42.690;2.586;2023-05-29T12:58:59;96778.31;;;31.63;22.14
30873;BME280;17579;42.690;2.586;2023-05-29T13:01:28;96790.75;;;31.50;23.07
30873;BME280;17579;42.690;2.586;2023-05-29T13:03:57;96780.44;;;31.41;22.71
30873;BME280;17579;42.690;2.586;2023-05-29T13:06:34;96781.22;;;31.47;22.84
30873;BME280;17579;42.690;2.586;2023-05-29T13:09:26;96766.50;;;31.19;22.87
30873;BME280;17579;42.690;2.586;2023-05-29T13:11:59;96775.34;;;31.11;22.38
30873;BME280;17579;42.690;2.586;2023-05-29T13:14:33;96766.88;;;31.12;22.61
30873;BME280;17579;42.690;2.586;2023-05-29T13:17:15;96767.78;;;30.97;22.80
30873;BME280;17579;42.690;2.586;2023-05-29T13:20:09;96765.06;;;31.02;22.71
30873;BME280;17579;42.690;2.586;2023-05-29T13:22:38;96753.59;;;31.00;22.46
30873;BME280;17579;42.690;2.586;2023-05-29T13:25:05;96766.03;;;31.12;22.19
30873;BME280;17579;42.690;2.586;2023-05-29T13:27:36;96764.66;;;31.38;22.11
30873;BME280;17579;42.690;2.586;2023-05-29T13:30:12;96763.09;;;31.32;22.78
30873;BME280;17579;42.690;2.586;2023-05-29T13:32:41;96759.78;;;31.35;22.32
30873;BME280;17579;42.690;2.586;2023-05-29T13:35:08;96759.59;;;31.26;22.16
30873;BME280;17579;42.690;2.586;2023-05-29T13:37:43;96765.22;;;31.11;22.23
30873;BME280;17579;42.690;2.586;2023-05-29T13:40:21;96749.19;;;31.04;23.04
30873;BME280;17579;42.690;2.586;2023-05-29T13:43:12;96753.84;;;31.04;22.77
30873;BME280;17579;42.690;2.586;2023-05-29T13:45:46;96748.84;;;31.11;23.04
30873;BME280;17579;42.690;2.586;2023-05-29T13:48:12;96745.53;;;31.14;22.77
30873;BME280;17579;42.690;2.586;2023-05-29T13:50:43;96745.06;;;31.07;22.36
30873;BME280;17579;42.690;2.586;2023-05-29T13:56:51;96750.06;;;30.70;23.47
30873;BME280;17579;42.690;2.586;2023-05-29T13:59:17;96747.94;;;30.62;22.55
30873;BME280;17579;42.690;2.586;2023-05-29T14:02:13;96741.41;;;30.23;23.65
30873;BME280;17579;42.690;2.586;2023-05-29T14:04:46;96741.31;;;29.99;23.99
30873;BME280;17579;42.690;2.586;2023-05-29T14:07:18;96740.38;;;29.69;25.09
30873;BME280;17579;42.690;2.586;2023-05-29T14:09:49;96745.88;;;29.59;24.52
30873;BME280;17579;42.690;2.586;2023-05-29T14:12:15;96737.25;;;29.42;24.83
30873;BME280;17579;42.690;2.586;2023-05-29T14:14:48;96734.53;;;29.47;25.08
30873;BME280;17579;42.690;2.586;2023-05-29T14:17:19;96734.75;;;29.50;25.16
30873;BME280;17579;42.690;2.586;2023-05-29T14:19:44;96727.72;;;29.39;25.46
30873;BME280;17579;42.690;2.586;2023-05-29T14:22:30;96723.97;;;29.30;25.77
30873;BME280;17579;42.690;2.586;2023-05-29T14:24:58;96718.53;;;29.25;26.07
30873;BME280;17579;42.690;2.586;2023-05-29T14:27:27;96723.47;;;29.23;25.73
30873;BME280;17579;42.690;2.586;2023-05-29T14:29:52;96717.19;;;29.17;25.81
30873;BME280;17579;42.690;2.586;2023-05-29T14:32:21;96715.03;;;29.14;25.73
30873;BME280;17579;42.690;2.586;2023-05-29T14:34:54;96721.31;;;28.99;26.49
30873;BME280;17579;42.690;2.586;2023-05-29T14:37:33;96719.66;;;29.03;26.11